地図

経路データ

SID SEASON NUMBER BASIN SUBBASIN NAME ISO_TIME NATURE LAT LON WMO_WIND WMO_PRES WMO_AGENCY TRACK_TYPE DIST2LAND LANDFALL IFLAG USA_AGENCY USA_ATCF_ID USA_LAT USA_LON USA_RECORD USA_STATUS USA_WIND USA_PRES USA_SSHS USA_R34_NE USA_R34_SE USA_R34_SW USA_R34_NW USA_R50_NE USA_R50_SE USA_R50_SW USA_R50_NW USA_R64_NE USA_R64_SE USA_R64_SW USA_R64_NW USA_POCI USA_ROCI USA_RMW USA_EYE TOKYO_LAT TOKYO_LON TOKYO_GRADE TOKYO_WIND TOKYO_PRES TOKYO_R50_DIR TOKYO_R50_LONG TOKYO_R50_SHORT TOKYO_R30_DIR TOKYO_R30_LONG TOKYO_R30_SHORT TOKYO_LAND CMA_LAT CMA_LON CMA_CAT CMA_WIND CMA_PRES HKO_LAT HKO_LON HKO_CAT HKO_WIND HKO_PRES NEWDELHI_LAT NEWDELHI_LON NEWDELHI_GRADE NEWDELHI_WIND NEWDELHI_PRES NEWDELHI_CI NEWDELHI_DP NEWDELHI_POCI REUNION_LAT REUNION_LON REUNION_TYPE REUNION_WIND REUNION_PRES REUNION_TNUM REUNION_CI REUNION_RMW REUNION_R34_NE REUNION_R34_SE REUNION_R34_SW REUNION_R34_NW REUNION_R50_NE REUNION_R50_SE REUNION_R50_SW REUNION_R50_NW REUNION_R64_NE REUNION_R64_SE REUNION_R64_SW REUNION_R64_NW BOM_LAT BOM_LON BOM_TYPE BOM_WIND BOM_PRES BOM_TNUM BOM_CI BOM_RMW BOM_R34_NE BOM_R34_SE BOM_R34_SW BOM_R34_NW BOM_R50_NE BOM_R50_SE BOM_R50_SW BOM_R50_NW BOM_R64_NE BOM_R64_SE BOM_R64_SW BOM_R64_NW BOM_ROCI BOM_POCI BOM_EYE BOM_POS_METHOD BOM_PRES_METHOD NADI_LAT NADI_LON NADI_CAT NADI_WIND NADI_PRES WELLINGTON_LAT WELLINGTON_LON WELLINGTON_WIND WELLINGTON_PRES DS824_LAT DS824_LON DS824_STAGE DS824_WIND DS824_PRES TD9636_LAT TD9636_LON TD9636_STAGE TD9636_WIND TD9636_PRES TD9635_LAT TD9635_LON TD9635_WIND TD9635_PRES TD9635_ROCI NEUMANN_LAT NEUMANN_LON NEUMANN_CLASS NEUMANN_WIND NEUMANN_PRES MLC_LAT MLC_LON MLC_CLASS MLC_WIND MLC_PRES USA_GUST BOM_GUST BOM_GUST_PER REUNION_GUST REUNION_GUST_PER USA_SEAHGT USA_SEARAD_NE USA_SEARAD_SE USA_SEARAD_SW USA_SEARAD_NW STORM_SPEED STORM_DIR
1962239N26280 1962 70 NA NA ALMA 1962-08-26 12:00:00 TS 25.7000 -79.7000 25 hurdat_atl main 41 19 O_____________ hurdat_atl AL011962 25.7000 -79.7000 TD 25 -1 12 341
1962239N26280 1962 70 NA NA ALMA 1962-08-26 15:00:00 TS 26.2551 -79.9121 main 19 0 P_____________ AL011962 26.2551 -79.9121 TD 27 -1 12 342
1962239N26280 1962 70 NA NA ALMA 1962-08-26 18:00:00 TS 26.8000 -80.1000 30 hurdat_atl main 0 0 O_____________ hurdat_atl AL011962 26.8000 -80.1000 TD 30 -1 11 345
1962239N26280 1962 70 NA NA ALMA 1962-08-26 21:00:00 TS 27.3350 -80.2375 main 9 0 P_____________ AL011962 27.3350 -80.2375 TD 30 -1 11 351
1962239N26280 1962 70 NA NA ALMA 1962-08-27 00:00:00 TS 27.9000 -80.3000 30 hurdat_atl main 19 19 O_____________ hurdat_atl AL011962 27.9000 -80.3000 TD 30 -1 12 358
1962239N26280 1962 70 NA NA ALMA 1962-08-27 03:00:00 TS 28.5424 -80.3023 main 19 19 P_____________ AL011962 28.5424 -80.3023 TD 32 -1 13 4
1962239N26280 1962 70 NA NA ALMA 1962-08-27 06:00:00 TS 29.2000 -80.2000 35 1007 hurdat_atl main 67 67 O_____________ hurdat_atl AL011962 29.2000 -80.2000 TS 35 1007 0 13 11
1962239N26280 1962 70 NA NA ALMA 1962-08-27 09:00:00 TS 29.8148 -80.0097 main 115 115 P_____________ AL011962 29.8148 -80.0097 TS 37 1005 0 13 20
1962239N26280 1962 70 NA NA ALMA 1962-08-27 12:00:00 TS 30.4000 -79.7000 40 hurdat_atl main 165 163 I_____________ hurdat_atl AL011962 30.4000 -79.7000 TS 40 1004 0 13 28
1962239N26280 1962 70 NA NA ALMA 1962-08-27 15:00:00 TS 30.9574 -79.2946 main 181 166 P_____________ AL011962 30.9574 -79.2946 TS 42 1003 0 13 35
1962239N26280 1962 70 NA NA ALMA 1962-08-27 18:00:00 TS 31.5000 -78.8000 45 1002 hurdat_atl main 166 145 O_____________ hurdat_atl AL011962 31.5000 -78.8000 TS 45 1002 0 14 39
1962239N26280 1962 70 NA NA ALMA 1962-08-27 21:00:00 TS 32.0424 -78.2645 main 151 147 P_____________ AL011962 32.0424 -78.2645 TS 45 1002 0 14 40
1962239N26280 1962 70 NA NA ALMA 1962-08-28 00:00:00 TS 32.6000 -77.7000 45 1002 hurdat_atl main 147 110 O_____________ hurdat_atl AL011962 32.6000 -77.7000 TS 45 1002 0 15 39
1962239N26280 1962 70 NA NA ALMA 1962-08-28 03:00:00 TS 33.1771 -77.1637 main 107 100 P_____________ AL011962 33.1771 -77.1637 TS 50 1001 0 15 37
1962239N26280 1962 70 NA NA ALMA 1962-08-28 06:00:00 TS 33.8000 -76.6000 55 1000 hurdat_atl main 100 49 O_____________ hurdat_atl AL011962 33.8000 -76.6000 TS 55 1000 0 16 37
1962239N26280 1962 70 NA NA ALMA 1962-08-28 09:00:00 TS 34.4618 -76.0004 main 50 49 P_____________ AL011962 34.4618 -76.0004 TS 60 997 0 18 37
1962239N26280 1962 70 NA NA ALMA 1962-08-28 12:00:00 TS 35.2000 -75.3000 65 hurdat_atl main 57 56 I_____________ hurdat_atl AL011962 35.2000 -75.3000 HU 65 995 1 20 39
1962239N26280 1962 70 NA NA ALMA 1962-08-28 15:00:00 TS 36.0201 -74.4370 main 101 101 P_____________ AL011962 36.0201 -74.4370 HU 70 992 1 22 41
1962239N26280 1962 70 NA NA ALMA 1962-08-28 18:00:00 TS 36.9000 -73.5000 75 990 hurdat_atl main 202 202 O_____________ hurdat_atl AL011962 36.9000 -73.5000 HU 75 990 1 23 40
1962239N26280 1962 70 NA NA ALMA 1962-08-28 21:00:00 TS 37.8223 -72.5775 main 225 225 P_____________ AL011962 37.8223 -72.5775 HU 75 989 1 23 38
1962239N26280 1962 70 NA NA ALMA 1962-08-29 00:00:00 TS 38.7000 -71.7000 75 988 hurdat_atl main 240 206 O_____________ hurdat_atl AL011962 38.7000 -71.7000 HU 75 988 1 21 39
1962239N26280 1962 70 NA NA ALMA 1962-08-29 03:00:00 TS 39.4673 -70.8743 main 204 161 P_____________ AL011962 39.4673 -70.8743 HU 75 988 1 18 40
1962239N26280 1962 70 NA NA ALMA 1962-08-29 06:00:00 TS 40.1000 -70.2000 75 hurdat_atl main 161 122 I_____________ hurdat_atl AL011962 40.1000 -70.2000 HU 75 989 1 14 37
1962239N26280 1962 70 NA NA ALMA 1962-08-29 09:00:00 TS 40.6167 -69.7380 main 124 92 P_____________ AL011962 40.6167 -69.7380 HU 72 989 1 11 34
1962239N26280 1962 70 NA NA ALMA 1962-08-29 12:00:00 TS 41.0000 -69.4000 70 990 hurdat_atl main 92 86 O_____________ hurdat_atl AL011962 41.0000 -69.4000 HU 70 990 1 9 36
1962239N26280 1962 70 NA NA ALMA 1962-08-29 15:00:00 TS 41.3172 -69.0572 main 86 86 P_____________ AL011962 41.3172 -69.0572 HU 67 987 1 7 46
1962239N26280 1962 70 NA NA ALMA 1962-08-29 18:00:00 TS 41.5000 -68.7000 65 984 hurdat_atl main 110 110 O_____________ hurdat_atl AL011962 41.5000 -68.7000 HU 65 984 1 6 68
1962239N26280 1962 70 NA NA ALMA 1962-08-29 21:00:00 TS 41.5525 -68.2647 main 141 141 P_____________ AL011962 41.5525 -68.2647 HU 62 0 7 90
1962239N26280 1962 70 NA NA ALMA 1962-08-30 00:00:00 TS 41.5000 -67.8000 60 hurdat_atl main 183 183 O_____________ hurdat_atl AL011962 41.5000 -67.8000 TS 60 0 7 101
1962239N26280 1962 70 NA NA ALMA 1962-08-30 03:00:00 TS 41.4223 -67.3500 main 226 226 P_____________ AL011962 41.4223 -67.3500 TS 57 0 7 106
1962239N26280 1962 70 NA NA ALMA 1962-08-30 06:00:00 TS 41.3000 -66.9000 55 hurdat_atl main 261 257 O_____________ hurdat_atl AL011962 41.3000 -66.9000 TS 55 0 7 112
1962239N26280 1962 70 NA NA ALMA 1962-08-30 09:00:00 TS 41.1498 -66.4499 main 273 270 P_____________ AL011962 41.1498 -66.4499 TS 50 0 7 114
1962239N26280 1962 70 NA NA ALMA 1962-08-30 12:00:00 TS 41.0000 -66.0000 45 hurdat_atl main 279 278 O_____________ hurdat_atl AL011962 41.0000 -66.0000 TS 45 0 7 109
1962239N26280 1962 70 NA NA ALMA 1962-08-30 15:00:00 TS 40.9074 -65.5430 main 289 289 P_____________ AL011962 40.9074 -65.5430 TS 42 0 7 106
1962239N26280 1962 70 NA NA ALMA 1962-08-30 18:00:00 ET 40.8000 -65.1000 40 hurdat_atl main 300 300 O_____________ hurdat_atl AL011962 40.8000 -65.1000 EX 40 -4 7 113
1962239N26280 1962 70 NA NA ALMA 1962-08-30 21:00:00 ET 40.6226 -64.6547 main 326 326 P_____________ AL011962 40.6226 -64.6547 EX 40 -4 7 123
1962239N26280 1962 70 NA NA ALMA 1962-08-31 00:00:00 ET 40.4000 -64.3000 40 hurdat_atl main 354 354 O_____________ hurdat_atl AL011962 40.4000 -64.3000 EX 40 -4 6 137
1962239N26280 1962 70 NA NA ALMA 1962-08-31 03:00:00 ET 40.1798 -64.1054 main 380 380 P_____________ AL011962 40.1798 -64.1054 EX 40 -4 6 155
1962239N26280 1962 70 NA NA ALMA 1962-08-31 06:00:00 ET 39.9000 -64.0000 40 hurdat_atl main 414 414 O_____________ hurdat_atl AL011962 39.9000 -64.0000 EX 40 -4 7 164
1962239N26280 1962 70 NA NA ALMA 1962-08-31 09:00:00 ET 39.5000 -63.8545 main 459 459 P_____________ AL011962 39.5000 -63.8545 EX 40 -4 8 169
1962239N26280 1962 70 NA NA ALMA 1962-08-31 12:00:00 ET 39.1000 -63.8000 40 hurdat_atl main 505 505 O_____________ hurdat_atl AL011962 39.1000 -63.8000 EX 40 -4 7 183
1962239N26280 1962 70 NA NA ALMA 1962-08-31 15:00:00 ET 38.8125 -63.9054 main 535 535 P_____________ AL011962 38.8125 -63.9054 EX 37 -4 6 205
1962239N26280 1962 70 NA NA ALMA 1962-08-31 18:00:00 ET 38.6000 -64.1000 35 hurdat_atl main 554 554 O_____________ hurdat_atl AL011962 38.6000 -64.1000 EX 35 -4 5 216
1962239N26280 1962 70 NA NA ALMA 1962-08-31 21:00:00 ET 38.4050 -64.2851 main 573 572 P_____________ AL011962 38.4050 -64.2851 EX 35 -4 4 226
1962239N26280 1962 70 NA NA ALMA 1962-09-01 00:00:00 ET 38.3000 -64.5000 35 hurdat_atl main 582 580 O_____________ hurdat_atl AL011962 38.3000 -64.5000 EX 35 -4 4 255
1962239N26280 1962 70 NA NA ALMA 1962-09-01 03:00:00 ET 38.3125 -64.7423 main 580 560 P_____________ AL011962 38.3125 -64.7423 EX 35 -4 4 284
1962239N26280 1962 70 NA NA ALMA 1962-09-01 06:00:00 ET 38.4000 -65.0000 35 hurdat_atl main 560 534 O_____________ hurdat_atl AL011962 38.4000 -65.0000 EX 35 -4 5 291
1962239N26280 1962 70 NA NA ALMA 1962-09-01 09:00:00 ET 38.4776 -65.2948 main 534 514 P_____________ AL011962 38.4776 -65.2948 EX 35 -4 4 297
1962239N26280 1962 70 NA NA ALMA 1962-09-01 12:00:00 ET 38.6000 -65.5000 35 hurdat_atl main 514 498 O_____________ hurdat_atl AL011962 38.6000 -65.5000 EX 35 -4 3 330
1962239N26280 1962 70 NA NA ALMA 1962-09-01 15:00:00 ET 38.7774 -65.5175 main 498 491 P_____________ AL011962 38.7774 -65.5175 EX 35 -4 4 11
1962239N26280 1962 70 NA NA ALMA 1962-09-01 18:00:00 ET 39.0000 -65.4000 35 hurdat_atl main 491 478 O_____________ hurdat_atl AL011962 39.0000 -65.4000 EX 35 -4 5 22
1962239N26280 1962 70 NA NA ALMA 1962-09-01 21:00:00 ET 39.2118 -65.2961 main 478 445 P_____________ AL011962 39.2118 -65.2961 EX 35 -4 6 32
1962239N26280 1962 70 NA NA ALMA 1962-09-02 00:00:00 ET 39.5000 -65.0000 35 hurdat_atl main 445 405 O_____________ hurdat_atl AL011962 39.5000 -65.0000 EX 35 -4 10 45
1962239N26280 1962 70 NA NA ALMA 1962-09-02 03:00:00 ET 39.9142 -64.3959 main 407 372 P_____________ AL011962 39.9142 -64.3959 EX 35 -4 14 50
1962239N26280 1962 70 NA NA ALMA 1962-09-02 06:00:00 ET 40.4000 -63.6000 35 hurdat_atl main 372 O_____________ hurdat_atl AL011962 40.4000 -63.6000 EX 35 -4 16 51

IBTrACS Databaseについて

本データベースは、米国NOAAが公開する1842年以降の世界の熱帯低気圧のベストトラックデータアーカイブInternational Best Track Archive for Climate Stewardship (IBTrACS)を、ウェブで閲覧しやすい形式に変換したものです。

最終更新日:2021-10-08